Ashfield, Massachusetts
Current Conditions -  °F | °C
As of 2:52 AM on Monday 24 Nov 2014 (Local Time) from KAQW Reporting Station
Overcast Overcast  
Wind Chill: 39°   Ceiling: 4500
Heat Index: 45°   Visibility: 10mi
Dew Point: 36°   Wind: 12mph
Humidity: 71%   Direction: 90°E
Pressure: 29.91"   Gusts: NA
Location:  42.53°N, 72.79°W
Report Text: KAQW 240752Z AUTO 09010KT 10SM SCT029 BKN045 OVC060 07/02 A2991 RMK AO2 SLP130 T00720022
Loading
Personal Weather Stations






























Interactive Weather Map New forecast layout! Learn more

10-Day Weather Forecast

Advertisements
Track Severe Weather on mobile